sensor_id;sensor_type;location;lat;lon;timestamp;temperature;humidity
14473;DHT22;7322;50.872;4.386;2023-02-28T00:00:47;18.90;99.90
14473;DHT22;7322;50.872;4.386;2023-02-28T00:03:20;18.90;99.90
14473;DHT22;7322;50.872;4.386;2023-02-28T00:05:58;18.90;99.90
14473;DHT22;7322;50.872;4.386;2023-02-28T00:08:46;18.90;99.90
14473;DHT22;7322;50.872;4.386;2023-02-28T00:11:22;18.90;99.90
14473;DHT22;7322;50.872;4.386;2023-02-28T00:13:51;18.90;99.90
14473;DHT22;7322;50.872;4.386;2023-02-28T00:16:31;18.90;99.90
14473;DHT22;7322;50.872;4.386;2023-02-28T00:18:58;18.80;99.90
14473;DHT22;7322;50.872;4.386;2023-02-28T00:21:28;18.90;99.90
14473;DHT22;7322;50.872;4.386;2023-02-28T00:23:55;18.80;99.90
14473;DHT22;7322;50.872;4.386;2023-02-28T00:26:22;18.80;99.90
14473;DHT22;7322;50.872;4.386;2023-02-28T00:29:11;18.80;99.90
14473;DHT22;7322;50.872;4.386;2023-02-28T00:31:53;18.90;99.90
14473;DHT22;7322;50.872;4.386;2023-02-28T00:34:23;18.80;99.90
14473;DHT22;7322;50.872;4.386;2023-02-28T00:36:53;18.80;99.90
14473;DHT22;7322;50.872;4.386;2023-02-28T00:39:20;18.80;99.90
14473;DHT22;7322;50.872;4.386;2023-02-28T00:41:49;18.80;99.90
14473;DHT22;7322;50.872;4.386;2023-02-28T00:44:22;18.80;99.90
14473;DHT22;7322;50.872;4.386;2023-02-28T00:46:51;18.80;99.90
14473;DHT22;7322;50.872;4.386;2023-02-28T00:49:22;18.70;99.90
14473;DHT22;7322;50.872;4.386;2023-02-28T00:52:00;18.80;99.90
14473;DHT22;7322;50.872;4.386;2023-02-28T00:54:27;18.80;99.90
14473;DHT22;7322;50.872;4.386;2023-02-28T00:57:02;18.80;99.90
14473;DHT22;7322;50.872;4.386;2023-02-28T00:59:36;18.80;99.90
14473;DHT22;7322;50.872;4.386;2023-02-28T01:02:15;18.80;99.90
14473;DHT22;7322;50.872;4.386;2023-02-28T01:04:49;18.80;99.90
14473;DHT22;7322;50.872;4.386;2023-02-28T01:07:24;18.80;99.90
14473;DHT22;7322;50.872;4.386;2023-02-28T01:09:52;18.70;99.90
14473;DHT22;7322;50.872;4.386;2023-02-28T01:12:19;18.70;99.90
14473;DHT22;7322;50.872;4.386;2023-02-28T01:15:13;18.70;99.90
14473;DHT22;7322;50.872;4.386;2023-02-28T01:17:53;18.70;99.90
14473;DHT22;7322;50.872;4.386;2023-02-28T01:20:21;18.70;99.90
14473;DHT22;7322;50.872;4.386;2023-02-28T01:23:12;18.70;99.90
14473;DHT22;7322;50.872;4.386;2023-02-28T01:25:45;18.70;99.90
14473;DHT22;7322;50.872;4.386;2023-02-28T01:28:12;18.70;99.90
14473;DHT22;7322;50.872;4.386;2023-02-28T01:30:52;18.60;99.90
14473;DHT22;7322;50.872;4.386;2023-02-28T01:33:47;18.70;99.90
14473;DHT22;7322;50.872;4.386;2023-02-28T01:36:16;18.70;99.90
14473;DHT22;7322;50.872;4.386;2023-02-28T01:38:51;18.60;99.90
14473;DHT22;7322;50.872;4.386;2023-02-28T01:41:23;18.60;99.90
14473;DHT22;7322;50.872;4.386;2023-02-28T01:43:58;18.60;99.90
14473;DHT22;7322;50.872;4.386;2023-02-28T01:46:31;18.60;99.90
14473;DHT22;7322;50.872;4.386;2023-02-28T01:49:09;18.60;99.90
14473;DHT22;7322;50.872;4.386;2023-02-28T01:51:46;18.60;99.90
14473;DHT22;7322;50.872;4.386;2023-02-28T01:54:22;18.60;99.90
14473;DHT22;7322;50.872;4.386;2023-02-28T01:56:55;18.60;99.90
14473;DHT22;7322;50.872;4.386;2023-02-28T01:59:38;18.60;99.90
14473;DHT22;7322;50.872;4.386;2023-02-28T02:02:12;18.60;99.90
14473;DHT22;7322;50.872;4.386;2023-02-28T02:04:55;18.60;99.90
14473;DHT22;7322;50.872;4.386;2023-02-28T02:07:23;18.60;99.90
14473;DHT22;7322;50.872;4.386;2023-02-28T02:10:02;18.60;99.90
14473;DHT22;7322;50.872;4.386;2023-02-28T02:12:39;18.60;99.90
14473;DHT22;7322;50.872;4.386;2023-02-28T02:15:14;18.60;99.90
14473;DHT22;7322;50.872;4.386;2023-02-28T02:17:56;18.50;99.90
14473;DHT22;7322;50.872;4.386;2023-02-28T02:27:08;18.50;99.90
14473;DHT22;7322;50.872;4.386;2023-02-28T02:36:19;18.50;99.90
14473;DHT22;7322;50.872;4.386;2023-02-28T02:38:53;18.50;99.90
14473;DHT22;7322;50.872;4.386;2023-02-28T02:41:26;18.50;99.90
14473;DHT22;7322;50.872;4.386;2023-02-28T02:44:01;18.50;99.90
14473;DHT22;7322;50.872;4.386;2023-02-28T02:46:34;18.50;99.90
14473;DHT22;7322;50.872;4.386;2023-02-28T02:49:28;18.50;99.90
14473;DHT22;7322;50.872;4.386;2023-02-28T02:52:02;18.50;99.90
14473;DHT22;7322;50.872;4.386;2023-02-28T02:54:32;18.50;99.90
14473;DHT22;7322;50.872;4.386;2023-02-28T02:57:12;18.40;99.90
14473;DHT22;7322;50.872;4.386;2023-02-28T02:59:55;18.50;99.90
14473;DHT22;7322;50.872;4.386;2023-02-28T03:02:23;18.50;99.90
14473;DHT22;7322;50.872;4.386;2023-02-28T03:04:53;18.50;99.90
14473;DHT22;7322;50.872;4.386;2023-02-28T03:07:45;18.40;99.90
14473;DHT22;7322;50.872;4.386;2023-02-28T03:10:43;18.50;99.90
14473;DHT22;7322;50.872;4.386;2023-02-28T03:19:52;18.50;99.90
14473;DHT22;7322;50.872;4.386;2023-02-28T03:22:36;18.40;99.90
14473;DHT22;7322;50.872;4.386;2023-02-28T03:25:18;18.40;99.90
14473;DHT22;7322;50.872;4.386;2023-02-28T03:28:00;18.40;99.90
14473;DHT22;7322;50.872;4.386;2023-02-28T03:30:36;18.40;99.90
14473;DHT22;7322;50.872;4.386;2023-02-28T03:33:09;18.40;99.90
14473;DHT22;7322;50.872;4.386;2023-02-28T03:35:42;18.40;99.90
14473;DHT22;7322;50.872;4.386;2023-02-28T03:38:23;18.40;99.90
14473;DHT22;7322;50.872;4.386;2023-02-28T03:40:57;18.40;99.90
14473;DHT22;7322;50.872;4.386;2023-02-28T03:43:36;18.40;99.90
14473;DHT22;7322;50.872;4.386;2023-02-28T03:46:13;18.40;99.90
14473;DHT22;7322;50.872;4.386;2023-02-28T03:48:52;18.40;99.90
14473;DHT22;7322;50.872;4.386;2023-02-28T03:51:24;18.40;99.90
14473;DHT22;7322;50.872;4.386;2023-02-28T03:53:54;18.40;99.90
14473;DHT22;7322;50.872;4.386;2023-02-28T03:56:27;18.40;99.90
14473;DHT22;7322;50.872;4.386;2023-02-28T03:59:24;18.40;99.90
14473;DHT22;7322;50.872;4.386;2023-02-28T04:01:52;18.40;99.90
14473;DHT22;7322;50.872;4.386;2023-02-28T04:04:21;18.30;99.90
14473;DHT22;7322;50.872;4.386;2023-02-28T04:07:22;18.30;99.90
14473;DHT22;7322;50.872;4.386;2023-02-28T04:09:49;18.40;99.90
14473;DHT22;7322;50.872;4.386;2023-02-28T04:12:20;18.30;99.90
14473;DHT22;7322;50.872;4.386;2023-02-28T04:14:52;18.30;99.90
14473;DHT22;7322;50.872;4.386;2023-02-28T04:17:30;18.30;99.90
14473;DHT22;7322;50.872;4.386;2023-02-28T04:20:01;18.40;99.90
14473;DHT22;7322;50.872;4.386;2023-02-28T04:22:53;18.30;99.90
14473;DHT22;7322;50.872;4.386;2023-02-28T04:25:23;18.30;99.90
14473;DHT22;7322;50.872;4.386;2023-02-28T04:28:04;18.30;99.90
14473;DHT22;7322;50.872;4.386;2023-02-28T04:30:54;18.30;99.90
14473;DHT22;7322;50.872;4.386;2023-02-28T04:33:22;18.30;99.90
14473;DHT22;7322;50.872;4.386;2023-02-28T04:35:59;18.20;99.90
14473;DHT22;7322;50.872;4.386;2023-02-28T04:38:27;18.30;99.90
14473;DHT22;7322;50.872;4.386;2023-02-28T04:41:18;18.20;99.90
14473;DHT22;7322;50.872;4.386;2023-02-28T04:43:54;18.30;99.90
14473;DHT22;7322;50.872;4.386;2023-02-28T04:46:23;18.20;99.90
14473;DHT22;7322;50.872;4.386;2023-02-28T04:48:53;18.20;99.90
14473;DHT22;7322;50.872;4.386;2023-02-28T04:51:20;18.20;99.90
14473;DHT22;7322;50.872;4.386;2023-02-28T04:53:57;18.20;99.90
14473;DHT22;7322;50.872;4.386;2023-02-28T04:56:30;18.30;99.90
14473;DHT22;7322;50.872;4.386;2023-02-28T04:59:21;18.30;99.90
14473;DHT22;7322;50.872;4.386;2023-02-28T05:01:50;18.30;99.90
14473;DHT22;7322;50.872;4.386;2023-02-28T05:04:23;18.20;99.90
14473;DHT22;7322;50.872;4.386;2023-02-28T05:07:00;18.20;99.90
14473;DHT22;7322;50.872;4.386;2023-02-28T05:09:35;18.20;99.90
14473;DHT22;7322;50.872;4.386;2023-02-28T05:12:20;18.20;99.90
14473;DHT22;7322;50.872;4.386;2023-02-28T05:15:24;18.30;99.90
14473;DHT22;7322;50.872;4.386;2023-02-28T05:17:52;18.20;99.90
14473;DHT22;7322;50.872;4.386;2023-02-28T05:20:19;18.20;99.90
14473;DHT22;7322;50.872;4.386;2023-02-28T05:22:58;18.20;99.90
14473;DHT22;7322;50.872;4.386;2023-02-28T05:25:26;18.20;99.90
14473;DHT22;7322;50.872;4.386;2023-02-28T05:27:53;18.20;99.90
14473;DHT22;7322;50.872;4.386;2023-02-28T05:30:52;18.20;99.90
14473;DHT22;7322;50.872;4.386;2023-02-28T05:33:20;18.20;99.90
14473;DHT22;7322;50.872;4.386;2023-02-28T05:35:49;18.10;99.90
14473;DHT22;7322;50.872;4.386;2023-02-28T05:38:22;18.10;99.90
14473;DHT22;7322;50.872;4.386;2023-02-28T05:40:50;18.20;99.90
14473;DHT22;7322;50.872;4.386;2023-02-28T05:43:23;18.20;99.90
14473;DHT22;7322;50.872;4.386;2023-02-28T05:45:54;18.20;99.90
14473;DHT22;7322;50.872;4.386;2023-02-28T05:48:21;18.10;99.90
14473;DHT22;7322;50.872;4.386;2023-02-28T05:50:53;18.20;99.90
14473;DHT22;7322;50.872;4.386;2023-02-28T05:53:27;18.20;99.90
14473;DHT22;7322;50.872;4.386;2023-02-28T05:56:20;18.20;99.90
14473;DHT22;7322;50.872;4.386;2023-02-28T05:58:53;18.30;99.90
14473;DHT22;7322;50.872;4.386;2023-02-28T06:01:35;18.40;99.90
14473;DHT22;7322;50.872;4.386;2023-02-28T06:04:05;18.50;99.90
14473;DHT22;7322;50.872;4.386;2023-02-28T06:06:33;18.70;99.90
14473;DHT22;7322;50.872;4.386;2023-02-28T06:09:01;18.90;99.90
14473;DHT22;7322;50.872;4.386;2023-02-28T06:11:29;19.10;99.90
14473;DHT22;7322;50.872;4.386;2023-02-28T06:13:58;19.40;99.90
14473;DHT22;7322;50.872;4.386;2023-02-28T06:16:26;19.60;99.90
14473;DHT22;7322;50.872;4.386;2023-02-28T06:18:56;19.80;99.90
14473;DHT22;7322;50.872;4.386;2023-02-28T06:21:26;20.10;99.90
14473;DHT22;7322;50.872;4.386;2023-02-28T06:23:57;20.20;99.90
14473;DHT22;7322;50.872;4.386;2023-02-28T06:26:26;20.40;99.90
14473;DHT22;7322;50.872;4.386;2023-02-28T06:28:54;20.50;99.90
14473;DHT22;7322;50.872;4.386;2023-02-28T06:31:23;20.70;99.90
14473;DHT22;7322;50.872;4.386;2023-02-28T06:33:52;20.80;99.90
14473;DHT22;7322;50.872;4.386;2023-02-28T06:36:21;20.80;99.90
14473;DHT22;7322;50.872;4.386;2023-02-28T06:38:48;20.80;99.90
14473;DHT22;7322;50.872;4.386;2023-02-28T06:41:22;20.90;99.90
14473;DHT22;7322;50.872;4.386;2023-02-28T06:43:50;20.90;99.90
14473;DHT22;7322;50.872;4.386;2023-02-28T06:46:17;20.90;99.90
14473;DHT22;7322;50.872;4.386;2023-02-28T06:48:50;20.80;99.90
14473;DHT22;7322;50.872;4.386;2023-02-28T06:51:20;20.80;99.90
14473;DHT22;7322;50.872;4.386;2023-02-28T06:53:50;20.80;99.90
14473;DHT22;7322;50.872;4.386;2023-02-28T06:56:23;20.70;99.90
14473;DHT22;7322;50.872;4.386;2023-02-28T06:58:53;20.70;99.90
14473;DHT22;7322;50.872;4.386;2023-02-28T07:01:31;20.70;99.90
14473;DHT22;7322;50.872;4.386;2023-02-28T07:03:59;20.60;99.90
14473;DHT22;7322;50.872;4.386;2023-02-28T07:06:45;20.60;99.90
14473;DHT22;7322;50.872;4.386;2023-02-28T07:09:19;20.50;99.90
14473;DHT22;7322;50.872;4.386;2023-02-28T07:11:57;20.40;99.90
14473;DHT22;7322;50.872;4.386;2023-02-28T07:14:32;20.40;99.90
14473;DHT22;7322;50.872;4.386;2023-02-28T07:17:07;20.40;99.90
14473;DHT22;7322;50.872;4.386;2023-02-28T07:19:41;20.20;99.90
14473;DHT22;7322;50.872;4.386;2023-02-28T07:22:10;19.90;99.90
14473;DHT22;7322;50.872;4.386;2023-02-28T07:24:50;19.70;99.90
14473;DHT22;7322;50.872;4.386;2023-02-28T07:27:17;19.60;99.90
14473;DHT22;7322;50.872;4.386;2023-02-28T07:29:50;19.40;99.90
14473;DHT22;7322;50.872;4.386;2023-02-28T07:32:18;19.40;99.90
14473;DHT22;7322;50.872;4.386;2023-02-28T07:34:53;19.40;99.90
14473;DHT22;7322;50.872;4.386;2023-02-28T07:37:22;19.30;99.90
14473;DHT22;7322;50.872;4.386;2023-02-28T07:40:22;19.30;99.90
14473;DHT22;7322;50.872;4.386;2023-02-28T07:42:50;19.30;99.90
14473;DHT22;7322;50.872;4.386;2023-02-28T07:45:22;19.30;99.90
14473;DHT22;7322;50.872;4.386;2023-02-28T07:47:59;19.20;99.90
14473;DHT22;7322;50.872;4.386;2023-02-28T07:50:26;19.20;99.90
14473;DHT22;7322;50.872;4.386;2023-02-28T07:53:06;19.20;99.90
14473;DHT22;7322;50.872;4.386;2023-02-28T07:55:39;19.20;99.90
14473;DHT22;7322;50.872;4.386;2023-02-28T07:58:09;19.20;99.90
14473;DHT22;7322;50.872;4.386;2023-02-28T08:00:41;19.10;99.90
14473;DHT22;7322;50.872;4.386;2023-02-28T08:03:25;19.10;99.90
14473;DHT22;7322;50.872;4.386;2023-02-28T08:05:53;19.10;99.90
14473;DHT22;7322;50.872;4.386;2023-02-28T08:08:24;19.10;99.90
14473;DHT22;7322;50.872;4.386;2023-02-28T08:10:58;19.10;99.90
14473;DHT22;7322;50.872;4.386;2023-02-28T08:13:29;19.10;99.90
14473;DHT22;7322;50.872;4.386;2023-02-28T08:16:02;19.10;99.90
14473;DHT22;7322;50.872;4.386;2023-02-28T08:18:29;19.10;99.90
14473;DHT22;7322;50.872;4.386;2023-02-28T08:21:06;19.10;99.90
14473;DHT22;7322;50.872;4.386;2023-02-28T08:23:53;19.10;99.90
14473;DHT22;7322;50.872;4.386;2023-02-28T08:26:42;19.10;99.90
14473;DHT22;7322;50.872;4.386;2023-02-28T08:29:16;19.10;99.90
14473;DHT22;7322;50.872;4.386;2023-02-28T08:31:46;19.10;99.90
14473;DHT22;7322;50.872;4.386;2023-02-28T08:34:19;19.10;99.90
14473;DHT22;7322;50.872;4.386;2023-02-28T08:36:49;19.10;99.90
14473;DHT22;7322;50.872;4.386;2023-02-28T08:39:27;19.10;99.90
14473;DHT22;7322;50.872;4.386;2023-02-28T08:42:00;19.10;99.90
14473;DHT22;7322;50.872;4.386;2023-02-28T08:44:28;19.10;99.90
14473;DHT22;7322;50.872;4.386;2023-02-28T08:46:55;19.10;99.90
14473;DHT22;7322;50.872;4.386;2023-02-28T08:49:25;19.10;99.90
14473;DHT22;7322;50.872;4.386;2023-02-28T08:51:53;19.10;99.90
14473;DHT22;7322;50.872;4.386;2023-02-28T08:54:22;19.10;99.90
14473;DHT22;7322;50.872;4.386;2023-02-28T08:56:53;19.10;99.90
14473;DHT22;7322;50.872;4.386;2023-02-28T08:59:20;19.10;99.90
14473;DHT22;7322;50.872;4.386;2023-02-28T09:01:53;19.10;99.90
14473;DHT22;7322;50.872;4.386;2023-02-28T09:04:36;19.10;99.90
14473;DHT22;7322;50.872;4.386;2023-02-28T09:07:12;19.20;99.90
14473;DHT22;7322;50.872;4.386;2023-02-28T09:09:44;19.10;99.90
14473;DHT22;7322;50.872;4.386;2023-02-28T09:12:26;19.10;99.90
14473;DHT22;7322;50.872;4.386;2023-02-28T09:14:55;19.10;99.90
14473;DHT22;7322;50.872;4.386;2023-02-28T09:17:25;19.10;99.90
14473;DHT22;7322;50.872;4.386;2023-02-28T09:19:52;19.10;99.90
14473;DHT22;7322;50.872;4.386;2023-02-28T09:22:20;19.10;99.90
14473;DHT22;7322;50.872;4.386;2023-02-28T09:25:07;19.10;99.90
14473;DHT22;7322;50.872;4.386;2023-02-28T09:27:37;19.20;99.90
14473;DHT22;7322;50.872;4.386;2023-02-28T09:30:22;19.10;99.90
14473;DHT22;7322;50.872;4.386;2023-02-28T09:32:57;19.10;99.90
14473;DHT22;7322;50.872;4.386;2023-02-28T09:35:30;19.10;99.90
14473;DHT22;7322;50.872;4.386;2023-02-28T09:37:58;19.10;99.90
14473;DHT22;7322;50.872;4.386;2023-02-28T09:40:28;19.10;99.90
14473;DHT22;7322;50.872;4.386;2023-02-28T09:43:25;19.10;99.90
14473;DHT22;7322;50.872;4.386;2023-02-28T09:46:05;19.10;99.90
14473;DHT22;7322;50.872;4.386;2023-02-28T09:48:39;19.10;99.90
14473;DHT22;7322;50.872;4.386;2023-02-28T09:51:40;19.10;99.90
14473;DHT22;7322;50.872;4.386;2023-02-28T09:54:14;19.20;99.90
14473;DHT22;7322;50.872;4.386;2023-02-28T09:56:54;19.10;99.90
14473;DHT22;7322;50.872;4.386;2023-02-28T10:06:05;19.10;99.90
14473;DHT22;7322;50.872;4.386;2023-02-28T10:08:47;19.10;99.90
14473;DHT22;7322;50.872;4.386;2023-02-28T10:11:23;19.20;99.90
14473;DHT22;7322;50.872;4.386;2023-02-28T10:13:55;19.20;99.90
14473;DHT22;7322;50.872;4.386;2023-02-28T10:16:30;19.20;99.90
14473;DHT22;7322;50.872;4.386;2023-02-28T10:19:08;19.20;99.90
14473;DHT22;7322;50.872;4.386;2023-02-28T10:21:57;19.20;99.90
14473;DHT22;7322;50.872;4.386;2023-02-28T10:24:34;19.20;99.90
14473;DHT22;7322;50.872;4.386;2023-02-28T10:27:14;19.30;99.90
14473;DHT22;7322;50.872;4.386;2023-02-28T10:29:49;19.20;99.90
14473;DHT22;7322;50.872;4.386;2023-02-28T10:32:19;19.20;99.90
14473;DHT22;7322;50.872;4.386;2023-02-28T10:34:50;19.30;99.90
14473;DHT22;7322;50.872;4.386;2023-02-28T10:37:37;19.30;99.90
14473;DHT22;7322;50.872;4.386;2023-02-28T10:40:07;19.30;99.90
14473;DHT22;7322;50.872;4.386;2023-02-28T10:42:55;19.30;99.90
14473;DHT22;7322;50.872;4.386;2023-02-28T10:45:24;19.30;99.90
14473;DHT22;7322;50.872;4.386;2023-02-28T10:47:54;19.30;99.90
14473;DHT22;7322;50.872;4.386;2023-02-28T10:50:36;19.30;99.90
14473;DHT22;7322;50.872;4.386;2023-02-28T10:53:32;19.30;99.90
14473;DHT22;7322;50.872;4.386;2023-02-28T10:56:16;19.40;99.90
14473;DHT22;7322;50.872;4.386;2023-02-28T10:58:53;19.40;99.90
14473;DHT22;7322;50.872;4.386;2023-02-28T11:01:24;19.30;99.90
14473;DHT22;7322;50.872;4.386;2023-02-28T11:04:17;19.40;99.90
14473;DHT22;7322;50.872;4.386;2023-02-28T11:06:45;19.40;99.90
14473;DHT22;7322;50.872;4.386;2023-02-28T11:09:30;19.40;99.90
14473;DHT22;7322;50.872;4.386;2023-02-28T11:11:57;19.40;99.90
14473;DHT22;7322;50.872;4.386;2023-02-28T11:14:27;19.40;99.90
14473;DHT22;7322;50.872;4.386;2023-02-28T11:16:57;19.40;99.90
14473;DHT22;7322;50.872;4.386;2023-02-28T11:19:29;19.40;99.90
14473;DHT22;7322;50.872;4.386;2023-02-28T11:22:01;19.40;99.90
14473;DHT22;7322;50.872;4.386;2023-02-28T11:24:35;19.40;99.90
14473;DHT22;7322;50.872;4.386;2023-02-28T11:27:25;19.40;99.90
14473;DHT22;7322;50.872;4.386;2023-02-28T11:29:52;19.50;99.90
14473;DHT22;7322;50.872;4.386;2023-02-28T11:32:23;19.60;99.90
14473;DHT22;7322;50.872;4.386;2023-02-28T11:35:04;19.70;99.90
14473;DHT22;7322;50.872;4.386;2023-02-28T11:37:41;19.80;99.90
14473;DHT22;7322;50.872;4.386;2023-02-28T11:40:14;20.00;99.90
14473;DHT22;7322;50.872;4.386;2023-02-28T11:42:50;20.20;99.90
14473;DHT22;7322;50.872;4.386;2023-02-28T11:45:32;20.40;99.90
14473;DHT22;7322;50.872;4.386;2023-02-28T11:48:17;20.60;99.90
14473;DHT22;7322;50.872;4.386;2023-02-28T11:51:03;20.70;99.90
14473;DHT22;7322;50.872;4.386;2023-02-28T11:53:59;20.90;99.90
14473;DHT22;7322;50.872;4.386;2023-02-28T11:56:45;21.00;99.90
14473;DHT22;7322;50.872;4.386;2023-02-28T11:59:45;21.10;99.90
14473;DHT22;7322;50.872;4.386;2023-02-28T12:05:49;21.20;99.90
14473;DHT22;7322;50.872;4.386;2023-02-28T12:11:54;21.30;99.90
14473;DHT22;7322;50.872;4.386;2023-02-28T12:27:54;21.20;99.90
14473;DHT22;7322;50.872;4.386;2023-02-28T12:33:36;21.20;99.90
14473;DHT22;7322;50.872;4.386;2023-02-28T12:36:10;21.20;99.90
14473;DHT22;7322;50.872;4.386;2023-02-28T12:38:55;21.10;99.90
14473;DHT22;7322;50.872;4.386;2023-02-28T12:44:59;21.10;99.90
14473;DHT22;7322;50.872;4.386;2023-02-28T12:47:36;21.00;99.90
14473;DHT22;7322;50.872;4.386;2023-02-28T12:50:07;20.90;99.90
14473;DHT22;7322;50.872;4.386;2023-02-28T12:52:41;20.90;99.90
14473;DHT22;7322;50.872;4.386;2023-02-28T12:55:15;20.90;99.90
14473;DHT22;7322;50.872;4.386;2023-02-28T12:57:58;20.90;99.90
14473;DHT22;7322;50.872;4.386;2023-02-28T13:04:12;20.80;99.90
14473;DHT22;7322;50.872;4.386;2023-02-28T13:12:48;20.70;99.90
14473;DHT22;7322;50.872;4.386;2023-02-28T13:15:39;20.70;99.90
14473;DHT22;7322;50.872;4.386;2023-02-28T13:18:29;20.70;99.90
14473;DHT22;7322;50.872;4.386;2023-02-28T13:21:23;20.60;99.90
14473;DHT22;7322;50.872;4.386;2023-02-28T13:24:08;20.60;99.90
14473;DHT22;7322;50.872;4.386;2023-02-28T13:33:27;20.50;99.90
14473;DHT22;7322;50.872;4.386;2023-02-28T13:36:29;20.50;99.90
14473;DHT22;7322;50.872;4.386;2023-02-28T13:42:38;20.60;99.90
14473;DHT22;7322;50.872;4.386;2023-02-28T13:48:27;20.60;99.90
14473;DHT22;7322;50.872;4.386;2023-02-28T13:54:03;20.70;99.90
14473;DHT22;7322;50.872;4.386;2023-02-28T13:56:44;20.80;99.90
14473;DHT22;7322;50.872;4.386;2023-02-28T13:59:24;20.80;99.90
14473;DHT22;7322;50.872;4.386;2023-02-28T14:02:39;21.00;99.90
14473;DHT22;7322;50.872;4.386;2023-02-28T14:05:14;21.00;99.90
14473;DHT22;7322;50.872;4.386;2023-02-28T14:07:50;21.10;99.90
14473;DHT22;7322;50.872;4.386;2023-02-28T14:10:44;21.20;99.90
14473;DHT22;7322;50.872;4.386;2023-02-28T14:13:38;21.30;99.90
14473;DHT22;7322;50.872;4.386;2023-02-28T14:16:13;21.30;99.90
14473;DHT22;7322;50.872;4.386;2023-02-28T14:18:50;21.40;99.90
14473;DHT22;7322;50.872;4.386;2023-02-28T14:22:00;21.50;99.90
14473;DHT22;7322;50.872;4.386;2023-02-28T14:25:01;21.50;99.90
14473;DHT22;7322;50.872;4.386;2023-02-28T14:27:48;21.60;99.90
14473;DHT22;7322;50.872;4.386;2023-02-28T14:30:49;21.60;99.90
14473;DHT22;7322;50.872;4.386;2023-02-28T14:33:35;21.60;99.90
14473;DHT22;7322;50.872;4.386;2023-02-28T14:36:14;21.60;99.90
14473;DHT22;7322;50.872;4.386;2023-02-28T14:38:57;21.60;99.90
14473;DHT22;7322;50.872;4.386;2023-02-28T14:41:39;21.70;99.90
14473;DHT22;7322;50.872;4.386;2023-02-28T14:44:17;21.60;99.90
14473;DHT22;7322;50.872;4.386;2023-02-28T14:46:53;21.60;99.90
14473;DHT22;7322;50.872;4.386;2023-02-28T14:52:23;21.60;99.90
14473;DHT22;7322;50.872;4.386;2023-02-28T14:55:04;21.50;99.90
14473;DHT22;7322;50.872;4.386;2023-02-28T14:57:39;21.50;99.90
14473;DHT22;7322;50.872;4.386;2023-02-28T15:00:22;21.50;99.90
14473;DHT22;7322;50.872;4.386;2023-02-28T15:02:58;21.50;99.90
14473;DHT22;7322;50.872;4.386;2023-02-28T15:05:27;21.50;99.90
14473;DHT22;7322;50.872;4.386;2023-02-28T15:08:11;21.40;99.90
14473;DHT22;7322;50.872;4.386;2023-02-28T15:10:53;21.40;99.90
14473;DHT22;7322;50.872;4.386;2023-02-28T15:13:22;21.40;99.90
14473;DHT22;7322;50.872;4.386;2023-02-28T15:15:54;21.30;99.90
14473;DHT22;7322;50.872;4.386;2023-02-28T15:18:44;21.30;99.90
14473;DHT22;7322;50.872;4.386;2023-02-28T15:21:16;21.30;99.90
14473;DHT22;7322;50.872;4.386;2023-02-28T15:26:46;21.30;99.90
14473;DHT22;7322;50.872;4.386;2023-02-28T15:29:24;21.20;99.90
14473;DHT22;7322;50.872;4.386;2023-02-28T15:38:26;21.10;99.90
14473;DHT22;7322;50.872;4.386;2023-02-28T15:44:16;21.10;99.90
14473;DHT22;7322;50.872;4.386;2023-02-28T15:46:56;21.00;99.90
14473;DHT22;7322;50.872;4.386;2023-02-28T15:49:25;21.00;99.90
14473;DHT22;7322;50.872;4.386;2023-02-28T15:51:53;21.00;99.90
14473;DHT22;7322;50.872;4.386;2023-02-28T15:54:28;21.00;99.90
14473;DHT22;7322;50.872;4.386;2023-02-28T15:56:58;21.00;99.90
14473;DHT22;7322;50.872;4.386;2023-02-28T15:59:30;21.00;99.90
14473;DHT22;7322;50.872;4.386;2023-02-28T16:02:34;21.00;99.90
14473;DHT22;7322;50.872;4.386;2023-02-28T16:05:23;21.00;99.90
14473;DHT22;7322;50.872;4.386;2023-02-28T16:11:26;21.00;99.90
14473;DHT22;7322;50.872;4.386;2023-02-28T16:17:03;20.90;99.90
14473;DHT22;7322;50.872;4.386;2023-02-28T16:19:34;20.90;99.90
14473;DHT22;7322;50.872;4.386;2023-02-28T16:22:09;20.90;99.90
14473;DHT22;7322;50.872;4.386;2023-02-28T16:24:46;20.90;99.90
14473;DHT22;7322;50.872;4.386;2023-02-28T16:27:24;20.90;99.90
14473;DHT22;7322;50.872;4.386;2023-02-28T16:30:16;20.90;99.90
14473;DHT22;7322;50.872;4.386;2023-02-28T16:36:16;20.90;99.90
14473;DHT22;7322;50.872;4.386;2023-02-28T16:38:45;20.90;99.90
14473;DHT22;7322;50.872;4.386;2023-02-28T16:41:24;20.80;99.90
14473;DHT22;7322;50.872;4.386;2023-02-28T16:43:59;20.90;99.90
14473;DHT22;7322;50.872;4.386;2023-02-28T16:46:33;20.80;99.90
14473;DHT22;7322;50.872;4.386;2023-02-28T16:49:10;20.80;99.90
14473;DHT22;7322;50.872;4.386;2023-02-28T16:51:51;20.80;99.90
14473;DHT22;7322;50.872;4.386;2023-02-28T16:54:30;20.80;99.90
14473;DHT22;7322;50.872;4.386;2023-02-28T17:00:15;20.80;99.90
14473;DHT22;7322;50.872;4.386;2023-02-28T17:02:43;20.70;99.90
14473;DHT22;7322;50.872;4.386;2023-02-28T17:05:22;20.70;99.90
14473;DHT22;7322;50.872;4.386;2023-02-28T17:07:56;20.70;99.90
14473;DHT22;7322;50.872;4.386;2023-02-28T17:10:47;20.70;99.90
14473;DHT22;7322;50.872;4.386;2023-02-28T17:13:14;20.70;99.90
14473;DHT22;7322;50.872;4.386;2023-02-28T17:15:56;20.60;99.90
14473;DHT22;7322;50.872;4.386;2023-02-28T17:18:26;20.60;99.90
14473;DHT22;7322;50.872;4.386;2023-02-28T17:21:19;20.60;99.90
14473;DHT22;7322;50.872;4.386;2023-02-28T17:23:48;20.60;99.90
14473;DHT22;7322;50.872;4.386;2023-02-28T17:26:33;20.50;99.90
14473;DHT22;7322;50.872;4.386;2023-02-28T17:29:22;20.60;99.90
14473;DHT22;7322;50.872;4.386;2023-02-28T17:32:03;20.60;99.90
14473;DHT22;7322;50.872;4.386;2023-02-28T17:34:31;20.50;99.90
14473;DHT22;7322;50.872;4.386;2023-02-28T17:36:58;20.50;99.90
14473;DHT22;7322;50.872;4.386;2023-02-28T17:39:44;20.50;99.90
14473;DHT22;7322;50.872;4.386;2023-02-28T17:42:12;20.60;99.90
14473;DHT22;7322;50.872;4.386;2023-02-28T17:44:38;20.50;99.90
14473;DHT22;7322;50.872;4.386;2023-02-28T17:47:13;20.60;99.90
14473;DHT22;7322;50.872;4.386;2023-02-28T17:49:49;20.60;99.90
14473;DHT22;7322;50.872;4.386;2023-02-28T17:52:21;20.60;99.90
14473;DHT22;7322;50.872;4.386;2023-02-28T17:55:03;20.60;99.90
14473;DHT22;7322;50.872;4.386;2023-02-28T17:57:30;20.70;99.90
14473;DHT22;7322;50.872;4.386;2023-02-28T17:59:57;20.70;99.90
14473;DHT22;7322;50.872;4.386;2023-02-28T18:02:33;20.70;99.90
14473;DHT22;7322;50.872;4.386;2023-02-28T18:05:02;20.70;99.90
14473;DHT22;7322;50.872;4.386;2023-02-28T18:07:31;20.70;99.90
14473;DHT22;7322;50.872;4.386;2023-02-28T18:09:59;20.70;99.90
14473;DHT22;7322;50.872;4.386;2023-02-28T18:12:38;20.70;99.90
14473;DHT22;7322;50.872;4.386;2023-02-28T18:15:08;20.70;99.90
14473;DHT22;7322;50.872;4.386;2023-02-28T18:17:38;20.70;99.90
14473;DHT22;7322;50.872;4.386;2023-02-28T18:20:15;20.70;99.90
14473;DHT22;7322;50.872;4.386;2023-02-28T18:22:44;20.70;99.90
14473;DHT22;7322;50.872;4.386;2023-02-28T18:25:16;20.60;99.90
14473;DHT22;7322;50.872;4.386;2023-02-28T18:27:45;20.60;99.90
14473;DHT22;7322;50.872;4.386;2023-02-28T18:30:30;20.60;99.90